sensor_id;sensor_type;location;lat;lon;timestamp;pressure;altitude;pressure_sealevel;temperature;humidity
22241;BME280;11289;52.524;13.694;2022-12-10T00:01:09;100263.53;;;-2.11;86.42
22241;BME280;11289;52.524;13.694;2022-12-10T00:03:35;100264.66;;;-2.06;86.16
22241;BME280;11289;52.524;13.694;2022-12-10T00:06:02;100251.25;;;-2.13;86.23
22241;BME280;11289;52.524;13.694;2022-12-10T00:08:28;100267.59;;;-2.13;86.32
22241;BME280;11289;52.524;13.694;2022-12-10T00:10:53;100258.78;;;-2.20;85.97
22241;BME280;11289;52.524;13.694;2022-12-10T00:13:19;100239.06;;;-2.33;86.32
22241;BME280;11289;52.524;13.694;2022-12-10T00:15:44;100253.03;;;-2.24;85.95
22241;BME280;11289;52.524;13.694;2022-12-10T00:18:10;100223.63;;;-2.49;86.54
22241;BME280;11289;52.524;13.694;2022-12-10T00:20:36;100259.50;;;-2.30;86.53
22241;BME280;11289;52.524;13.694;2022-12-10T00:23:02;100259.81;;;-2.26;86.82
22241;BME280;11289;52.524;13.694;2022-12-10T00:25:28;100260.88;;;-2.28;86.67
22241;BME280;11289;52.524;13.694;2022-12-10T00:28:01;100264.13;;;-2.31;86.56
22241;BME280;11289;52.524;13.694;2022-12-10T00:30:26;100265.75;;;-2.30;86.76
22241;BME280;11289;52.524;13.694;2022-12-10T00:32:51;100261.66;;;-2.32;87.02
22241;BME280;11289;52.524;13.694;2022-12-10T00:35:17;100266.06;;;-2.26;87.30
22241;BME280;11289;52.524;13.694;2022-12-10T00:37:42;100255.69;;;-2.29;87.57
22241;BME280;11289;52.524;13.694;2022-12-10T00:40:08;100275.66;;;-2.18;87.48
22241;BME280;11289;52.524;13.694;2022-12-10T00:42:36;100268.53;;;-2.24;86.94
22241;BME280;11289;52.524;13.694;2022-12-10T00:45:01;100271.28;;;-2.19;86.97
22241;BME280;11289;52.524;13.694;2022-12-10T00:47:31;100264.75;;;-2.23;86.87
22241;BME280;11289;52.524;13.694;2022-12-10T00:49:57;100279.22;;;-2.18;86.78
22241;BME280;11289;52.524;13.694;2022-12-10T00:52:22;100256.50;;;-2.29;86.97
22241;BME280;11289;52.524;13.694;2022-12-10T00:54:47;100287.44;;;-2.13;86.25
22241;BME280;11289;52.524;13.694;2022-12-10T00:57:13;100281.69;;;-2.16;86.69
22241;BME280;11289;52.524;13.694;2022-12-10T00:59:38;100280.84;;;-2.17;86.54
22241;BME280;11289;52.524;13.694;2022-12-10T01:02:04;100267.47;;;-2.23;86.90
22241;BME280;11289;52.524;13.694;2022-12-10T01:04:29;100248.88;;;-2.32;86.80
22241;BME280;11289;52.524;13.694;2022-12-10T01:06:55;100256.25;;;-2.27;86.51
22241;BME280;11289;52.524;13.694;2022-12-10T01:09:29;100250.19;;;-2.34;86.28
22241;BME280;11289;52.524;13.694;2022-12-10T01:11:56;100284.09;;;-2.20;86.52
22241;BME280;11289;52.524;13.694;2022-12-10T01:14:25;100251.50;;;-2.37;86.14
22241;BME280;11289;52.524;13.694;2022-12-10T01:16:54;100289.16;;;-2.29;86.24
22241;BME280;11289;52.524;13.694;2022-12-10T01:19:20;100278.78;;;-2.32;86.32
22241;BME280;11289;52.524;13.694;2022-12-10T01:21:49;100296.81;;;-2.25;86.80
22241;BME280;11289;52.524;13.694;2022-12-10T01:24:15;100283.34;;;-2.37;86.52
22241;BME280;11289;52.524;13.694;2022-12-10T01:26:40;100251.00;;;-2.56;86.95
22241;BME280;11289;52.524;13.694;2022-12-10T01:29:06;100249.69;;;-2.53;87.38
22241;BME280;11289;52.524;13.694;2022-12-10T01:31:34;100245.94;;;-2.47;86.38
22241;BME280;11289;52.524;13.694;2022-12-10T01:34:00;100233.56;;;-2.60;87.02
22241;BME280;11289;52.524;13.694;2022-12-10T01:36:27;100286.50;;;-2.23;87.35
22241;BME280;11289;52.524;13.694;2022-12-10T01:38:53;100289.22;;;-2.23;87.03
22241;BME280;11289;52.524;13.694;2022-12-10T01:41:27;100282.91;;;-2.29;86.71
22241;BME280;11289;52.524;13.694;2022-12-10T01:46:29;100268.47;;;-2.30;87.13
22241;BME280;11289;52.524;13.694;2022-12-10T01:48:55;100221.69;;;-2.54;87.03
22241;BME280;11289;52.524;13.694;2022-12-10T01:51:22;100269.97;;;-2.17;87.12
22241;BME280;11289;52.524;13.694;2022-12-10T01:53:57;100268.66;;;-2.14;86.92
22241;BME280;11289;52.524;13.694;2022-12-10T01:56:23;100267.75;;;-2.20;87.25
22241;BME280;11289;52.524;13.694;2022-12-10T01:58:50;100277.06;;;-2.16;86.41
22241;BME280;11289;52.524;13.694;2022-12-10T02:04:35;100265.84;;;-2.19;86.82
22241;BME280;11289;52.524;13.694;2022-12-10T02:10:18;100271.13;;;-2.13;87.15
22241;BME280;11289;52.524;13.694;2022-12-10T02:12:53;100268.66;;;-2.14;86.67
22241;BME280;11289;52.524;13.694;2022-12-10T02:15:24;100261.16;;;-2.29;86.83
22241;BME280;11289;52.524;13.694;2022-12-10T02:18:12;100256.00;;;-2.25;86.86
22241;BME280;11289;52.524;13.694;2022-12-10T02:20:42;100260.63;;;-2.26;86.73
22241;BME280;11289;52.524;13.694;2022-12-10T02:23:18;100264.41;;;-2.27;86.54
22241;BME280;11289;52.524;13.694;2022-12-10T02:25:58;100265.81;;;-2.24;87.24
22241;BME280;11289;52.524;13.694;2022-12-10T02:28:33;100262.28;;;-2.25;87.14
22241;BME280;11289;52.524;13.694;2022-12-10T02:31:03;100263.34;;;-2.26;86.47
22241;BME280;11289;52.524;13.694;2022-12-10T02:33:31;100245.00;;;-2.36;86.84
22241;BME280;11289;52.524;13.694;2022-12-10T02:35:58;100253.75;;;-2.34;86.60
22241;BME280;11289;52.524;13.694;2022-12-10T02:38:29;100249.63;;;-2.36;86.39
22241;BME280;11289;52.524;13.694;2022-12-10T02:41:11;100249.38;;;-2.35;86.22
22241;BME280;11289;52.524;13.694;2022-12-10T02:43:39;100251.50;;;-2.37;86.40
22241;BME280;11289;52.524;13.694;2022-12-10T02:46:05;100260.19;;;-2.40;86.49
22241;BME280;11289;52.524;13.694;2022-12-10T02:48:32;100257.16;;;-2.43;86.20
22241;BME280;11289;52.524;13.694;2022-12-10T02:50:59;100236.34;;;-2.55;85.71
22241;BME280;11289;52.524;13.694;2022-12-10T02:53:25;100250.84;;;-2.49;85.72
22241;BME280;11289;52.524;13.694;2022-12-10T02:59:00;100249.69;;;-2.53;85.45
22241;BME280;11289;52.524;13.694;2022-12-10T03:01:45;100267.97;;;-2.49;85.13
22241;BME280;11289;52.524;13.694;2022-12-10T03:07:01;100255.06;;;-2.58;84.64
22241;BME280;11289;52.524;13.694;2022-12-10T03:09:37;100258.28;;;-2.62;84.62
22241;BME280;11289;52.524;13.694;2022-12-10T03:12:28;100257.78;;;-2.58;84.43
22241;BME280;11289;52.524;13.694;2022-12-10T03:14:59;100264.22;;;-2.65;84.42
22241;BME280;11289;52.524;13.694;2022-12-10T03:17:27;100259.78;;;-2.71;84.37
22241;BME280;11289;52.524;13.694;2022-12-10T03:19:55;100262.25;;;-2.69;84.39
22241;BME280;11289;52.524;13.694;2022-12-10T03:22:21;100269.00;;;-2.72;84.43
22241;BME280;11289;52.524;13.694;2022-12-10T03:24:47;100259.16;;;-2.78;84.50
22241;BME280;11289;52.524;13.694;2022-12-10T03:27:14;100245.97;;;-2.86;84.01
22241;BME280;11289;52.524;13.694;2022-12-10T03:29:50;100267.38;;;-2.73;84.31
22241;BME280;11289;52.524;13.694;2022-12-10T03:32:18;100250.44;;;-2.80;83.90
22241;BME280;11289;52.524;13.694;2022-12-10T03:34:46;100239.44;;;-2.90;83.99
22241;BME280;11289;52.524;13.694;2022-12-10T03:37:12;100260.22;;;-2.79;83.73
22241;BME280;11289;52.524;13.694;2022-12-10T03:39:38;100249.44;;;-2.91;83.81
22241;BME280;11289;52.524;13.694;2022-12-10T03:42:05;100248.63;;;-2.91;83.82
22241;BME280;11289;52.524;13.694;2022-12-10T03:44:36;100268.56;;;-2.86;84.01
22241;BME280;11289;52.524;13.694;2022-12-10T03:47:04;100277.28;;;-2.84;83.69
22241;BME280;11289;52.524;13.694;2022-12-10T03:49:29;100268.22;;;-2.89;83.82
22241;BME280;11289;52.524;13.694;2022-12-10T03:51:55;100261.63;;;-2.93;84.02
22241;BME280;11289;52.524;13.694;2022-12-10T03:54:21;100275.06;;;-2.87;83.88
22241;BME280;11289;52.524;13.694;2022-12-10T03:56:48;100274.50;;;-2.89;83.80
22241;BME280;11289;52.524;13.694;2022-12-10T03:59:13;100252.63;;;-2.99;83.95
22241;BME280;11289;52.524;13.694;2022-12-10T04:01:39;100260.81;;;-2.94;83.85
22241;BME280;11289;52.524;13.694;2022-12-10T04:04:05;100278.84;;;-2.88;84.27
22241;BME280;11289;52.524;13.694;2022-12-10T04:06:38;100283.22;;;-2.87;83.74
22241;BME280;11289;52.524;13.694;2022-12-10T04:09:04;100262.97;;;-2.96;84.19
22241;BME280;11289;52.524;13.694;2022-12-10T04:11:29;100288.97;;;-2.83;83.92
22241;BME280;11289;52.524;13.694;2022-12-10T04:13:54;100280.25;;;-2.85;84.30
22241;BME280;11289;52.524;13.694;2022-12-10T04:16:39;100277.59;;;-2.80;84.44
22241;BME280;11289;52.524;13.694;2022-12-10T04:19:07;100275.97;;;-2.81;84.73
22241;BME280;11289;52.524;13.694;2022-12-10T04:21:35;100280.38;;;-2.75;84.45
22241;BME280;11289;52.524;13.694;2022-12-10T04:24:22;100280.72;;;-2.71;84.87
22241;BME280;11289;52.524;13.694;2022-12-10T04:29:37;100272.88;;;-2.68;85.11
22241;BME280;11289;52.524;13.694;2022-12-10T04:32:02;100262.84;;;-2.67;84.95
22241;BME280;11289;52.524;13.694;2022-12-10T04:34:28;100269.66;;;-2.65;85.22
22241;BME280;11289;52.524;13.694;2022-12-10T04:36:53;100256.81;;;-2.69;85.36
22241;BME280;11289;52.524;13.694;2022-12-10T04:39:19;100275.41;;;-2.61;85.63
22241;BME280;11289;52.524;13.694;2022-12-10T04:41:46;100262.59;;;-2.66;85.47
22241;BME280;11289;52.524;13.694;2022-12-10T04:44:12;100267.56;;;-2.57;85.60
22241;BME280;11289;52.524;13.694;2022-12-10T04:46:38;100271.69;;;-2.55;85.63
22241;BME280;11289;52.524;13.694;2022-12-10T04:49:04;100280.47;;;-2.48;85.51
22241;BME280;11289;52.524;13.694;2022-12-10T04:51:30;100262.78;;;-2.50;85.40
22241;BME280;11289;52.524;13.694;2022-12-10T04:53:56;100279.47;;;-2.41;85.85
22241;BME280;11289;52.524;13.694;2022-12-10T04:56:21;100273.84;;;-2.35;85.71
22241;BME280;11289;52.524;13.694;2022-12-10T04:58:48;100288.84;;;-2.32;86.20
22241;BME280;11289;52.524;13.694;2022-12-10T05:01:13;100269.19;;;-2.39;85.83
22241;BME280;11289;52.524;13.694;2022-12-10T05:03:39;100284.03;;;-2.25;85.72
22241;BME280;11289;52.524;13.694;2022-12-10T05:06:07;100281.31;;;-2.25;85.56
22241;BME280;11289;52.524;13.694;2022-12-10T05:08:33;100261.31;;;-2.36;85.87
22241;BME280;11289;52.524;13.694;2022-12-10T05:11:03;100269.56;;;-2.31;86.00
22241;BME280;11289;52.524;13.694;2022-12-10T05:13:36;100256.66;;;-2.40;85.91
22241;BME280;11289;52.524;13.694;2022-12-10T05:16:04;100292.00;;;-2.18;86.02
22241;BME280;11289;52.524;13.694;2022-12-10T05:18:30;100298.03;;;-2.16;86.39
22241;BME280;11289;52.524;13.694;2022-12-10T05:20:58;100296.13;;;-2.16;86.10
22241;BME280;11289;52.524;13.694;2022-12-10T05:23:23;100295.56;;;-2.18;86.06
22241;BME280;11289;52.524;13.694;2022-12-10T05:26:00;100290.94;;;-2.17;85.96
22241;BME280;11289;52.524;13.694;2022-12-10T05:28:26;100281.38;;;-2.20;85.84
22241;BME280;11289;52.524;13.694;2022-12-10T05:30:52;100271.25;;;-2.24;86.31
22241;BME280;11289;52.524;13.694;2022-12-10T05:33:17;100291.84;;;-2.06;86.50
22241;BME280;11289;52.524;13.694;2022-12-10T05:35:43;100278.47;;;-2.13;86.41
22241;BME280;11289;52.524;13.694;2022-12-10T05:38:08;100290.75;;;-2.11;86.04
22241;BME280;11289;52.524;13.694;2022-12-10T05:40:36;100305.78;;;-2.03;86.43
22241;BME280;11289;52.524;13.694;2022-12-10T05:43:01;100293.22;;;-2.09;86.47
22241;BME280;11289;52.524;13.694;2022-12-10T05:45:27;100299.50;;;-2.03;86.47
22241;BME280;11289;52.524;13.694;2022-12-10T05:47:52;100309.41;;;-1.97;86.41
22241;BME280;11289;52.524;13.694;2022-12-10T05:50:18;100308.28;;;-1.96;86.29
22241;BME280;11289;52.524;13.694;2022-12-10T05:52:43;100292.81;;;-1.96;86.47
22241;BME280;11289;52.524;13.694;2022-12-10T05:55:08;100288.69;;;-1.98;86.29
22241;BME280;11289;52.524;13.694;2022-12-10T05:57:36;100287.91;;;-1.94;86.77
22241;BME280;11289;52.524;13.694;2022-12-10T06:00:03;100295.56;;;-1.90;86.50
22241;BME280;11289;52.524;13.694;2022-12-10T06:02:32;100288.44;;;-1.97;86.43
22241;BME280;11289;52.524;13.694;2022-12-10T06:04:57;100284.91;;;-1.97;86.48
22241;BME280;11289;52.524;13.694;2022-12-10T06:07:23;100286.84;;;-1.93;86.10
22241;BME280;11289;52.524;13.694;2022-12-10T06:09:48;100292.56;;;-1.94;86.12
22241;BME280;11289;52.524;13.694;2022-12-10T06:12:13;100287.38;;;-1.96;86.11
22241;BME280;11289;52.524;13.694;2022-12-10T06:14:38;100293.63;;;-1.95;86.35
22241;BME280;11289;52.524;13.694;2022-12-10T06:17:04;100299.13;;;-1.90;86.79
22241;BME280;11289;52.524;13.694;2022-12-10T06:19:29;100288.19;;;-1.95;86.68
22241;BME280;11289;52.524;13.694;2022-12-10T06:21:55;100298.34;;;-1.85;86.75
22241;BME280;11289;52.524;13.694;2022-12-10T06:24:20;100292.09;;;-1.86;86.70
22241;BME280;11289;52.524;13.694;2022-12-10T06:26:45;100302.78;;;-1.79;86.66
22241;BME280;11289;52.524;13.694;2022-12-10T06:29:11;100297.34;;;-1.79;86.46
22241;BME280;11289;52.524;13.694;2022-12-10T06:31:36;100299.25;;;-1.80;86.26
22241;BME280;11289;52.524;13.694;2022-12-10T06:34:03;100275.97;;;-1.93;86.56
22241;BME280;11289;52.524;13.694;2022-12-10T06:36:29;100281.94;;;-1.96;86.51
22241;BME280;11289;52.524;13.694;2022-12-10T06:38:58;100304.44;;;-1.78;86.51
22241;BME280;11289;52.524;13.694;2022-12-10T06:41:24;100303.91;;;-1.75;86.45
22241;BME280;11289;52.524;13.694;2022-12-10T06:43:55;100312.63;;;-1.73;86.27
22241;BME280;11289;52.524;13.694;2022-12-10T06:46:25;100321.13;;;-1.69;85.87
22241;BME280;11289;52.524;13.694;2022-12-10T06:48:51;100310.16;;;-1.75;86.23
22241;BME280;11289;52.524;13.694;2022-12-10T06:51:17;100318.91;;;-1.72;85.95
22241;BME280;11289;52.524;13.694;2022-12-10T06:53:43;100317.78;;;-1.77;85.96
22241;BME280;11289;52.524;13.694;2022-12-10T06:56:17;100335.53;;;-1.69;86.25
22241;BME280;11289;52.524;13.694;2022-12-10T06:58:43;100339.41;;;-1.65;85.90
22241;BME280;11289;52.524;13.694;2022-12-10T07:01:11;100313.28;;;-1.88;85.64
22241;BME280;11289;52.524;13.694;2022-12-10T07:03:38;100323.47;;;-1.78;86.18
22241;BME280;11289;52.524;13.694;2022-12-10T07:06:04;100347.75;;;-1.71;85.94
22241;BME280;11289;52.524;13.694;2022-12-10T07:08:30;100323.41;;;-1.83;86.12
22241;BME280;11289;52.524;13.694;2022-12-10T07:10:56;100346.84;;;-1.82;86.08
22241;BME280;11289;52.524;13.694;2022-12-10T07:13:22;100345.50;;;-1.80;86.33
22241;BME280;11289;52.524;13.694;2022-12-10T07:15:47;100340.25;;;-1.86;86.20
22241;BME280;11289;52.524;13.694;2022-12-10T07:18:13;100343.56;;;-1.84;86.13
22241;BME280;11289;52.524;13.694;2022-12-10T07:20:39;100351.16;;;-1.86;86.11
22241;BME280;11289;52.524;13.694;2022-12-10T07:23:04;100350.34;;;-1.87;86.45
22241;BME280;11289;52.524;13.694;2022-12-10T07:25:32;100347.97;;;-1.78;86.39
22241;BME280;11289;52.524;13.694;2022-12-10T07:27:58;100338.13;;;-1.84;86.62
22241;BME280;11289;52.524;13.694;2022-12-10T07:30:23;100350.44;;;-1.77;86.79
22241;BME280;11289;52.524;13.694;2022-12-10T07:32:49;100328.03;;;-1.84;86.61
22241;BME280;11289;52.524;13.694;2022-12-10T07:35:14;100356.78;;;-1.71;86.26
22241;BME280;11289;52.524;13.694;2022-12-10T07:37:40;100355.44;;;-1.68;86.46
22241;BME280;11289;52.524;13.694;2022-12-10T07:40:05;100366.34;;;-1.68;86.46
22241;BME280;11289;52.524;13.694;2022-12-10T07:42:31;100347.47;;;-1.75;86.67
22241;BME280;11289;52.524;13.694;2022-12-10T07:44:56;100357.53;;;-1.76;85.75
22241;BME280;11289;52.524;13.694;2022-12-10T07:47:21;100360.28;;;-1.76;86.35
22241;BME280;11289;52.524;13.694;2022-12-10T07:49:47;100365.47;;;-1.74;86.96
22241;BME280;11289;52.524;13.694;2022-12-10T07:52:12;100378.59;;;-1.66;86.90
22241;BME280;11289;52.524;13.694;2022-12-10T07:54:37;100340.00;;;-1.85;86.87
22241;BME280;11289;52.524;13.694;2022-12-10T07:57:03;100369.63;;;-1.66;86.75
22241;BME280;11289;52.524;13.694;2022-12-10T07:59:28;100373.47;;;-1.62;86.71
22241;BME280;11289;52.524;13.694;2022-12-10T08:01:53;100372.41;;;-1.61;86.99
22241;BME280;11289;52.524;13.694;2022-12-10T08:04:19;100364.28;;;-1.56;86.81
22241;BME280;11289;52.524;13.694;2022-12-10T08:06:45;100362.88;;;-1.59;86.80
22241;BME280;11289;52.524;13.694;2022-12-10T08:09:11;100382.31;;;-1.50;86.77
22241;BME280;11289;52.524;13.694;2022-12-10T08:11:37;100351.06;;;-1.69;86.53
22241;BME280;11289;52.524;13.694;2022-12-10T08:14:02;100375.25;;;-1.51;86.55
22241;BME280;11289;52.524;13.694;2022-12-10T08:16:29;100388.09;;;-1.46;86.75
22241;BME280;11289;52.524;13.694;2022-12-10T08:18:57;100389.41;;;-1.49;85.85
22241;BME280;11289;52.524;13.694;2022-12-10T08:21:26;100395.63;;;-1.53;86.20
22241;BME280;11289;52.524;13.694;2022-12-10T08:23:53;100378.34;;;-1.64;86.24
22241;BME280;11289;52.524;13.694;2022-12-10T08:26:22;100395.13;;;-1.50;86.76
22241;BME280;11289;52.524;13.694;2022-12-10T08:28:50;100391.34;;;-1.44;87.19
22241;BME280;11289;52.524;13.694;2022-12-10T08:31:20;100394.16;;;-1.39;87.01
22241;BME280;11289;52.524;13.694;2022-12-10T08:33:46;100388.59;;;-1.49;86.77
22241;BME280;11289;52.524;13.694;2022-12-10T08:36:15;100405.34;;;-1.35;86.80
22241;BME280;11289;52.524;13.694;2022-12-10T08:38:41;100399.00;;;-1.41;86.62
22241;BME280;11289;52.524;13.694;2022-12-10T08:41:21;100405.34;;;-1.35;86.69
22241;BME280;11289;52.524;13.694;2022-12-10T08:43:48;100393.63;;;-1.36;86.68
22241;BME280;11289;52.524;13.694;2022-12-10T08:46:15;100387.03;;;-1.40;86.68
22241;BME280;11289;52.524;13.694;2022-12-10T08:48:45;100395.28;;;-1.35;86.78
22241;BME280;11289;52.524;13.694;2022-12-10T08:51:13;100396.41;;;-1.31;86.47
22241;BME280;11289;52.524;13.694;2022-12-10T08:53:40;100419.28;;;-1.32;86.34
22241;BME280;11289;52.524;13.694;2022-12-10T08:56:06;100402.88;;;-1.37;86.47
22241;BME280;11289;52.524;13.694;2022-12-10T08:58:32;100385.28;;;-1.51;86.44
22241;BME280;11289;52.524;13.694;2022-12-10T09:00:57;100404.81;;;-1.32;86.45
22241;BME280;11289;52.524;13.694;2022-12-10T09:03:24;100416.31;;;-1.30;86.83
22241;BME280;11289;52.524;13.694;2022-12-10T09:05:49;100408.44;;;-1.27;87.01
22241;BME280;11289;52.524;13.694;2022-12-10T09:08:14;100373.13;;;-1.44;87.02
22241;BME280;11289;52.524;13.694;2022-12-10T09:10:40;100416.41;;;-1.20;86.70
22241;BME280;11289;52.524;13.694;2022-12-10T09:13:06;100421.41;;;-1.12;86.44
22241;BME280;11289;52.524;13.694;2022-12-10T09:15:35;100418.09;;;-1.14;86.84
22241;BME280;11289;52.524;13.694;2022-12-10T09:18:01;100412.13;;;-1.11;86.63
22241;BME280;11289;52.524;13.694;2022-12-10T09:20:26;100417.03;;;-1.13;86.22
22241;BME280;11289;52.524;13.694;2022-12-10T09:22:52;100418.44;;;-1.05;86.58
22241;BME280;11289;52.524;13.694;2022-12-10T09:25:17;100415.44;;;-1.09;86.94
22241;BME280;11289;52.524;13.694;2022-12-10T09:27:44;100408.03;;;-1.13;86.67
22241;BME280;11289;52.524;13.694;2022-12-10T09:30:11;100419.31;;;-0.99;85.86
22241;BME280;11289;52.524;13.694;2022-12-10T09:32:36;100376.78;;;-1.33;86.27
22241;BME280;11289;52.524;13.694;2022-12-10T09:35:02;100423.34;;;-1.07;85.56
22241;BME280;11289;52.524;13.694;2022-12-10T09:37:27;100410.44;;;-1.17;85.90
22241;BME280;11289;52.524;13.694;2022-12-10T09:39:53;100416.50;;;-1.10;86.27
22241;BME280;11289;52.524;13.694;2022-12-10T09:42:28;100426.69;;;-1.00;86.64
22241;BME280;11289;52.524;13.694;2022-12-10T09:45:19;100427.25;;;-0.98;86.72
22241;BME280;11289;52.524;13.694;2022-12-10T09:53:28;100419.06;;;-0.98;86.01
22241;BME280;11289;52.524;13.694;2022-12-10T09:55:55;100402.63;;;-1.08;86.48
22241;BME280;11289;52.524;13.694;2022-12-10T09:58:23;100403.44;;;-1.08;85.72
22241;BME280;11289;52.524;13.694;2022-12-10T10:01:04;100406.47;;;-1.04;86.24
22241;BME280;11289;52.524;13.694;2022-12-10T10:03:33;100421.25;;;-1.00;85.76
22241;BME280;11289;52.524;13.694;2022-12-10T10:06:02;100405.53;;;-1.15;86.17
22241;BME280;11289;52.524;13.694;2022-12-10T10:08:32;100396.00;;;-1.17;86.60
22241;BME280;11289;52.524;13.694;2022-12-10T10:11:03;100396.00;;;-1.17;86.04
22241;BME280;11289;52.524;13.694;2022-12-10T10:13:35;100412.19;;;-1.06;86.49
22241;BME280;11289;52.524;13.694;2022-12-10T10:16:11;100412.75;;;-1.03;86.51
22241;BME280;11289;52.524;13.694;2022-12-10T10:19:03;100414.31;;;-1.13;85.81
22241;BME280;11289;52.524;13.694;2022-12-10T10:21:38;100400.88;;;-1.19;86.53
22241;BME280;11289;52.524;13.694;2022-12-10T10:24:05;100419.53;;;-1.06;86.82
22241;BME280;11289;52.524;13.694;2022-12-10T10:26:32;100413.59;;;-1.03;86.99
22241;BME280;11289;52.524;13.694;2022-12-10T10:29:05;100420.97;;;-0.98;87.13
22241;BME280;11289;52.524;13.694;2022-12-10T10:31:33;100415.81;;;-0.95;87.15
22241;BME280;11289;52.524;13.694;2022-12-10T10:34:02;100420.19;;;-0.94;86.45
22241;BME280;11289;52.524;13.694;2022-12-10T10:36:39;100402.16;;;-1.00;87.18
22241;BME280;11289;52.524;13.694;2022-12-10T10:41:42;100407.19;;;-0.86;87.51
22241;BME280;11289;52.524;13.694;2022-12-10T10:44:20;100409.09;;;-0.87;86.79
22241;BME280;11289;52.524;13.694;2022-12-10T10:46:48;100411.56;;;-0.85;86.65
22241;BME280;11289;52.524;13.694;2022-12-10T10:49:36;100411.59;;;-0.80;86.49
22241;BME280;11289;52.524;13.694;2022-12-10T10:52:16;100402.00;;;-0.83;86.91
22241;BME280;11289;52.524;13.694;2022-12-10T10:54:51;100403.97;;;-0.78;86.73
22241;BME280;11289;52.524;13.694;2022-12-10T10:57:27;100396.81;;;-0.84;85.71
22241;BME280;11289;52.524;13.694;2022-12-10T11:00:00;100402.81;;;-0.88;85.68
22241;BME280;11289;52.524;13.694;2022-12-10T11:02:36;100405.84;;;-0.84;86.20
22241;BME280;11289;52.524;13.694;2022-12-10T11:05:25;100403.63;;;-0.87;85.91
22241;BME280;11289;52.524;13.694;2022-12-10T11:08:00;100401.47;;;-0.85;86.23
22241;BME280;11289;52.524;13.694;2022-12-10T11:10:26;100396.53;;;-0.88;85.93
22241;BME280;11289;52.524;13.694;2022-12-10T11:13:23;100385.06;;;-0.90;86.60
22241;BME280;11289;52.524;13.694;2022-12-10T11:15:59;100389.22;;;-0.82;87.04
22241;BME280;11289;52.524;13.694;2022-12-10T11:18:34;100373.91;;;-0.89;86.42
22241;BME280;11289;52.524;13.694;2022-12-10T11:21:16;100387.56;;;-0.83;85.93
22241;BME280;11289;52.524;13.694;2022-12-10T11:23:47;100383.50;;;-0.81;86.73
22241;BME280;11289;52.524;13.694;2022-12-10T11:26:40;100378.34;;;-0.77;86.62
22241;BME280;11289;52.524;13.694;2022-12-10T11:29:37;100374.81;;;-0.78;86.45
22241;BME280;11289;52.524;13.694;2022-12-10T11:35:16;100359.50;;;-0.84;85.98
22241;BME280;11289;52.524;13.694;2022-12-10T11:50:47;100373.41;;;-0.85;85.09
22241;BME280;11289;52.524;13.694;2022-12-10T11:56:04;100373.94;;;-0.83;85.56
22241;BME280;11289;52.524;13.694;2022-12-10T12:04:14;100382.09;;;-0.89;85.19
22241;BME280;11289;52.524;13.694;2022-12-10T12:06:58;100383.47;;;-0.86;86.54
22241;BME280;11289;52.524;13.694;2022-12-10T12:12:55;100383.69;;;-0.93;85.97
22241;BME280;11289;52.524;13.694;2022-12-10T12:15:36;100385.31;;;-0.92;85.92
22241;BME280;11289;52.524;13.694;2022-12-10T12:18:16;100379.84;;;-0.97;86.07
22241;BME280;11289;52.524;13.694;2022-12-10T12:20:45;100393.53;;;-0.86;86.33
22241;BME280;11289;52.524;13.694;2022-12-10T12:23:21;100398.94;;;-0.92;85.08
22241;BME280;11289;52.524;13.694;2022-12-10T12:25:53;100400.81;;;-0.97;85.48
22241;BME280;11289;52.524;13.694;2022-12-10T12:28:25;100391.78;;;-1.03;85.83
22241;BME280;11289;52.524;13.694;2022-12-10T12:31:20;100398.31;;;-1.04;86.02
22241;BME280;11289;52.524;13.694;2022-12-10T12:33:53;100391.53;;;-1.01;86.44
22241;BME280;11289;52.524;13.694;2022-12-10T12:36:22;100401.13;;;-0.94;85.32
22241;BME280;11289;52.524;13.694;2022-12-10T12:38:57;100401.94;;;-0.93;86.38
22241;BME280;11289;52.524;13.694;2022-12-10T12:41:32;100398.69;;;-0.90;86.53
22241;BME280;11289;52.524;13.694;2022-12-10T12:44:18;100389.16;;;-0.93;86.22
22241;BME280;11289;52.524;13.694;2022-12-10T12:46:45;100398.13;;;-0.92;85.51
22241;BME280;11289;52.524;13.694;2022-12-10T12:52:02;100396.47;;;-0.93;85.85
22241;BME280;11289;52.524;13.694;2022-12-10T12:54:31;100393.22;;;-0.90;86.10
22241;BME280;11289;52.524;13.694;2022-12-10T12:56:59;100394.94;;;-0.84;86.09
22241;BME280;11289;52.524;13.694;2022-12-10T13:02:22;100398.47;;;-0.83;85.38
22241;BME280;11289;52.524;13.694;2022-12-10T13:04:52;100403.16;;;-0.79;85.48
22241;BME280;11289;52.524;13.694;2022-12-10T13:09:51;100407.78;;;-0.79;85.58
22241;BME280;11289;52.524;13.694;2022-12-10T13:12:27;100396.28;;;-0.86;84.95
22241;BME280;11289;52.524;13.694;2022-12-10T13:19:53;100404.72;;;-0.88;85.25
22241;BME280;11289;52.524;13.694;2022-12-10T13:25:14;100419.38;;;-0.94;83.92
22241;BME280;11289;52.524;13.694;2022-12-10T13:27:53;100425.09;;;-0.96;84.91
22241;BME280;11289;52.524;13.694;2022-12-10T13:30:31;100405.88;;;-1.11;84.00
22241;BME280;11289;52.524;13.694;2022-12-10T13:33:18;100432.69;;;-0.98;84.67
22241;BME280;11289;52.524;13.694;2022-12-10T13:35:59;100417.91;;;-1.07;84.72
22241;BME280;11289;52.524;13.694;2022-12-10T13:38:26;100444.44;;;-0.97;84.73
22241;BME280;11289;52.524;13.694;2022-12-10T13:41:01;100440.06;;;-0.98;84.79
22241;BME280;11289;52.524;13.694;2022-12-10T13:43:56;100434.88;;;-1.00;83.85
22241;BME280;11289;52.524;13.694;2022-12-10T13:46:57;100431.56;;;-1.02;84.34
22241;BME280;11289;52.524;13.694;2022-12-10T13:49:28;100435.88;;;-1.06;84.99
22241;BME280;11289;52.524;13.694;2022-12-10T13:52:03;100436.13;;;-1.08;84.70
22241;BME280;11289;52.524;13.694;2022-12-10T14:03:01;100446.31;;;-0.98;85.15
22241;BME280;11289;52.524;13.694;2022-12-10T14:08:01;100438.38;;;-1.04;84.60
22241;BME280;11289;52.524;13.694;2022-12-10T14:10:32;100434.25;;;-1.07;84.86
22241;BME280;11289;52.524;13.694;2022-12-10T14:12:59;100439.72;;;-1.02;84.99